createdAt,value
2017-12-02T00:00:11.864Z,1.19
2017-12-02T00:01:11.879Z,1.22
2017-12-02T00:02:11.927Z,1.16
2017-12-02T00:03:11.962Z,1.16
2017-12-02T00:04:11.999Z,1.16
2017-12-02T00:05:12.056Z,1.18
2017-12-02T00:06:12.087Z,1.19
2017-12-02T00:07:12.121Z,1.22
2017-12-02T00:08:12.160Z,1.21
2017-12-02T00:09:12.201Z,1.21
2017-12-02T00:10:12.256Z,1.14
2017-12-02T00:11:12.278Z,1.16
2017-12-02T00:12:12.322Z,1.19
2017-12-02T00:13:12.376Z,1.29
2017-12-02T00:14:12.400Z,1.22
2017-12-02T00:15:12.439Z,1.29
2017-12-02T00:16:12.496Z,1.24
2017-12-02T00:17:12.533Z,1.16
2017-12-02T00:18:12.578Z,1.16
2017-12-02T00:19:12.601Z,1.18
2017-12-02T00:20:12.643Z,1.18
2017-12-02T00:21:12.681Z,1.18
2017-12-02T00:22:12.721Z,1.18
2017-12-02T00:23:12.777Z,1.18
2017-12-02T00:24:12.805Z,1.16
2017-12-02T00:25:12.842Z,1.18
2017-12-02T00:26:12.885Z,1.18
2017-12-02T00:27:12.924Z,1.16
2017-12-02T00:28:12.979Z,1.22
2017-12-02T00:29:13.003Z,1.18
2017-12-02T00:30:13.052Z,1.29
2017-12-02T00:31:13.084Z,1.39
2017-12-02T00:32:13.145Z,1.33
2017-12-02T00:33:13.175Z,1.26
2017-12-02T00:34:13.204Z,1.33
2017-12-02T00:35:13.245Z,1.28
2017-12-02T00:36:13.288Z,1.29
2017-12-02T00:37:13.352Z,1.25
2017-12-02T00:38:13.366Z,1.22
2017-12-02T00:39:13.878Z,1.19
2017-12-02T00:40:13.447Z,1.15
2017-12-02T00:41:13.486Z,1.19
2017-12-02T00:42:13.553Z,1.26
2017-12-02T00:43:13.585Z,1.24
2017-12-02T00:44:13.609Z,1.21
2017-12-02T00:45:13.647Z,1.16
2017-12-02T00:46:13.695Z,1.18
2017-12-02T00:47:13.729Z,1.15
2017-12-02T00:48:13.790Z,1.22
2017-12-02T00:49:13.810Z,1.26
2017-12-02T00:50:13.866Z,1.19
2017-12-02T00:51:13.919Z,1.29
2017-12-02T00:52:13.930Z,1.28
2017-12-02T00:53:13.971Z,1.33
2017-12-02T00:54:14.011Z,1.43
2017-12-02T00:55:14.067Z,1.29
2017-12-02T00:56:14.094Z,1.33
2017-12-02T00:57:14.135Z,1.39
2017-12-02T00:58:14.174Z,1.26
2017-12-02T00:59:14.231Z,1.37
2017-12-02T01:00:14.257Z,1.34
2017-12-02T01:01:14.319Z,1.29
2017-12-02T01:02:14.337Z,1.21
2017-12-02T01:03:14.379Z,1.22
2017-12-02T01:04:14.419Z,1.22
2017-12-02T01:05:14.455Z,1.32
2017-12-02T01:06:14.521Z,1.16
2017-12-02T01:07:14.538Z,1.33
2017-12-02T01:08:14.578Z,1.29
2017-12-02T01:09:14.619Z,1.24
2017-12-02T01:10:14.661Z,1.19
2017-12-02T01:11:14.715Z,1.24
2017-12-02T01:12:14.756Z,1.16
2017-12-02T01:13:14.784Z,1.16
2017-12-02T01:14:14.822Z,1.18
2017-12-02T01:15:14.860Z,1.21
2017-12-02T01:16:14.909Z,1.19
2017-12-02T01:17:14.958Z,1.14
2017-12-02T01:18:14.985Z,1.18
2017-12-02T01:19:15.027Z,1.15
2017-12-02T01:20:15.065Z,1.12
2017-12-02T01:21:15.102Z,1.21
2017-12-02T01:22:15.163Z,1.25
2017-12-02T01:23:15.184Z,1.28
2017-12-02T01:24:15.225Z,1.16
2017-12-02T01:25:15.264Z,1.21
2017-12-02T01:26:15.304Z,1.25
2017-12-02T01:27:15.365Z,1.16
2017-12-02T01:28:15.385Z,1.16
2017-12-02T01:29:15.425Z,1.15
2017-12-02T01:30:15.466Z,1.18
2017-12-02T01:31:15.508Z,1.21
2017-12-02T01:32:15.564Z,1.21
2017-12-02T01:33:15.584Z,1.22
2017-12-02T01:34:15.628Z,1.21
2017-12-02T01:35:15.669Z,1.28
2017-12-02T01:36:15.716Z,1.34
2017-12-02T01:37:15.763Z,1.22
2017-12-02T01:38:15.791Z,1.28
2017-12-02T01:39:15.845Z,1.29
2017-12-02T01:40:15.869Z,1.25
2017-12-02T01:41:15.909Z,1.32
2017-12-02T01:42:15.950Z,1.36
2017-12-02T01:43:15.993Z,1.29
2017-12-02T01:44:16.050Z,1.25
2017-12-02T01:45:16.071Z,1.34
2017-12-02T01:46:16.111Z,1.37
2017-12-02T01:47:16.152Z,1.32
2017-12-02T01:48:16.194Z,1.32
2017-12-02T01:49:16.246Z,1.21
2017-12-02T01:50:16.274Z,1.33
2017-12-02T01:51:16.314Z,1.32
2017-12-02T01:52:16.358Z,1.21
2017-12-02T01:53:16.397Z,1.28
2017-12-02T01:54:16.449Z,1.26
2017-12-02T01:55:16.491Z,1.21
2017-12-02T01:56:16.514Z,1.25
2017-12-02T01:57:16.555Z,1.29
2017-12-02T01:58:16.597Z,1.29
2017-12-02T01:59:16.651Z,1.22
2017-12-02T02:00:16.677Z,1.24
2017-12-02T02:01:16.725Z,1.25
2017-12-02T02:02:16.762Z,1.29
2017-12-02T02:03:16.796Z,1.34
2017-12-02T02:04:16.853Z,1.33
2017-12-02T02:05:16.876Z,1.36
2017-12-02T02:06:16.918Z,1.34
2017-12-02T02:07:16.961Z,1.32
2017-12-02T02:08:17.033Z,1.34
2017-12-02T02:09:17.054Z,1.32
2017-12-02T02:10:17.079Z,1.28
2017-12-02T02:11:17.140Z,1.37
2017-12-02T02:12:17.162Z,1.26
2017-12-02T02:13:17.201Z,1.33
2017-12-02T02:14:17.250Z,1.37
2017-12-02T02:15:17.296Z,1.24
2017-12-02T02:16:17.338Z,1.28
2017-12-02T02:17:17.361Z,1.21
2017-12-02T02:18:17.402Z,1.26
2017-12-02T02:19:17.442Z,1.19
2017-12-02T02:20:17.482Z,1.19
2017-12-02T02:21:17.544Z,1.16
2017-12-02T02:22:17.564Z,1.18
2017-12-02T02:23:17.607Z,1.21
2017-12-02T02:24:17.648Z,1.21
2017-12-02T02:25:17.684Z,1.15
2017-12-02T02:26:17.743Z,1.19
2017-12-02T02:27:17.786Z,1.19
2017-12-02T02:28:17.806Z,1.16
2017-12-02T02:29:17.847Z,1.16
2017-12-02T02:30:17.889Z,1.15
2017-12-02T02:31:17.928Z,1.15
2017-12-02T02:32:17.986Z,1.32
2017-12-02T02:33:18.012Z,1.26
2017-12-02T02:34:18.048Z,1.36
2017-12-02T02:35:18.089Z,1.29
2017-12-02T02:36:18.136Z,1.32
2017-12-02T02:37:18.186Z,1.32
2017-12-02T02:38:18.210Z,1.37
2017-12-02T02:39:18.257Z,1.21
2017-12-02T02:40:18.291Z,1.19
2017-12-02T02:41:18.330Z,1.15
2017-12-02T02:42:18.392Z,1.18
2017-12-02T02:43:18.433Z,1.21
2017-12-02T02:44:18.456Z,1.18
2017-12-02T02:45:18.492Z,1.21
2017-12-02T02:46:18.534Z,1.28
2017-12-02T02:47:18.575Z,1.24
2017-12-02T02:48:18.631Z,1.32
2017-12-02T02:49:18.654Z,1.34
2017-12-02T02:50:18.696Z,1.32
2017-12-02T02:51:18.736Z,1.34
2017-12-02T02:52:18.779Z,1.28
2017-12-02T02:53:18.832Z,1.29
2017-12-02T02:54:18.857Z,1.28
2017-12-02T02:55:18.898Z,1.29
2017-12-02T02:56:18.940Z,1.29
2017-12-02T02:57:18.977Z,1.29
2017-12-02T02:58:19.044Z,1.28
2017-12-02T02:59:19.061Z,1.26
2017-12-02T03:00:19.101Z,1.19
2017-12-02T03:01:19.144Z,1.18
2017-12-02T03:02:19.188Z,1.21
2017-12-02T03:03:19.238Z,1.18
2017-12-02T03:04:19.265Z,1.16
2017-12-02T03:05:19.302Z,1.15
2017-12-02T03:06:19.342Z,1.21
2017-12-02T03:07:19.384Z,1.22
2017-12-02T03:08:19.442Z,1.22
2017-12-02T03:09:19.471Z,1.19
2017-12-02T03:10:19.505Z,1.29
2017-12-02T03:11:19.546Z,1.26
2017-12-02T03:12:19.587Z,1.26
2017-12-02T03:13:19.648Z,1.29
2017-12-02T03:14:19.670Z,1.26
2017-12-02T03:15:19.708Z,1.29
2017-12-02T03:16:19.750Z,1.29
2017-12-02T03:17:19.804Z,1.26
2017-12-02T03:18:19.830Z,1.32
2017-12-02T03:19:19.886Z,1.25
2017-12-02T03:20:19.911Z,1.34
2017-12-02T03:21:19.954Z,1.25
2017-12-02T03:22:20.014Z,1.24
2017-12-02T03:23:20.036Z,1.33
2017-12-02T03:24:20.073Z,1.28
2017-12-02T03:25:20.113Z,1.34
2017-12-02T03:26:20.155Z,1.26
2017-12-02T03:27:20.218Z,1.26
2017-12-02T03:28:20.234Z,1.32
2017-12-02T03:29:20.276Z,1.18
2017-12-02T03:30:20.317Z,1.14
2017-12-02T03:31:20.379Z,1.25
2017-12-02T03:32:20.403Z,1.25
2017-12-02T03:33:20.443Z,1.22
2017-12-02T03:34:20.478Z,1.28
2017-12-02T03:35:20.519Z,1.29
2017-12-02T03:36:20.578Z,1.28
2017-12-02T03:37:20.602Z,1.33
2017-12-02T03:38:20.643Z,1.26
2017-12-02T03:39:20.683Z,1.32
2017-12-02T03:40:20.721Z,1.29
2017-12-02T03:41:20.779Z,1.22
2017-12-02T03:42:20.804Z,1.24
2017-12-02T03:43:20.844Z,1.19
2017-12-02T03:44:20.884Z,1.18
2017-12-02T03:45:20.940Z,1.15
2017-12-02T03:46:20.969Z,1.16
2017-12-02T03:47:21.006Z,1.19
2017-12-02T03:48:21.046Z,1.21
2017-12-02T03:49:21.086Z,1.15
2017-12-02T03:50:21.141Z,1.21
2017-12-02T03:51:21.167Z,1.25
2017-12-02T03:52:21.209Z,1.26
2017-12-02T03:53:21.247Z,1.16
2017-12-02T03:54:21.292Z,1.19
2017-12-02T03:55:21.346Z,1.22
2017-12-02T03:56:21.369Z,1.19
2017-12-02T03:57:21.426Z,1.18
2017-12-02T03:58:21.450Z,1.19
2017-12-02T03:59:21.490Z,1.16
2017-12-02T04:00:21.532Z,1.16
2017-12-02T04:01:21.577Z,1.16
2017-12-02T04:02:21.633Z,1.16
2017-12-02T04:03:21.656Z,1.15
2017-12-02T04:04:21.689Z,1.22
2017-12-02T04:05:21.735Z,1.26
2017-12-02T04:06:21.775Z,1.25
2017-12-02T04:07:21.841Z,1.37
2017-12-02T04:08:21.859Z,1.28
2017-12-02T04:09:21.895Z,1.24
2017-12-02T04:10:21.935Z,1.26
2017-12-02T04:11:21.982Z,1.26
2017-12-02T04:12:22.032Z,1.24
2017-12-02T04:13:22.058Z,1.21
2017-12-02T04:14:22.098Z,1.33
2017-12-02T04:15:22.139Z,1.26
2017-12-02T04:16:22.195Z,1.14
2017-12-02T04:17:22.227Z,1.16
2017-12-02T04:18:22.279Z,1.15
2017-12-02T04:19:22.301Z,1.15
2017-12-02T04:20:22.343Z,1.21
2017-12-02T04:21:22.383Z,1.26
2017-12-02T04:22:22.427Z,1.21
2017-12-02T04:23:22.480Z,1.16
2017-12-02T04:24:22.503Z,1.22
2017-12-02T04:25:22.548Z,1.19
2017-12-02T04:26:22.586Z,1.14
2017-12-02T04:27:22.640Z,1.16
2017-12-02T04:28:22.669Z,1.18
2017-12-02T04:29:22.725Z,1.18
2017-12-02T04:30:22.745Z,1.18
2017-12-02T04:31:22.785Z,1.16
2017-12-02T04:32:22.827Z,1.18
2017-12-02T04:33:22.867Z,1.22
2017-12-02T04:34:22.923Z,1.21
2017-12-02T04:35:22.951Z,1.21
2017-12-02T04:36:22.989Z,1.16
2017-12-02T04:37:23.028Z,1.19
2017-12-02T04:38:23.072Z,1.16
2017-12-02T04:39:23.131Z,1.15
2017-12-02T04:40:23.153Z,1.21
2017-12-02T04:41:23.191Z,1.19
2017-12-02T04:42:23.231Z,1.16
2017-12-02T04:43:23.278Z,1.26
2017-12-02T04:44:23.330Z,1.24
2017-12-02T04:45:23.371Z,1.33
2017-12-02T04:46:23.394Z,1.25
2017-12-02T04:47:23.434Z,1.22
2017-12-02T04:48:23.472Z,1.28
2017-12-02T04:49:23.516Z,1.33
2017-12-02T04:50:23.573Z,1.29
2017-12-02T04:51:23.590Z,1.36
2017-12-02T04:52:23.642Z,1.32
2017-12-02T04:53:23.677Z,1.33
2017-12-02T04:54:23.721Z,1.34
2017-12-02T04:55:23.772Z,1.29
2017-12-02T04:56:23.812Z,1.33
2017-12-02T04:57:23.843Z,1.29
2017-12-02T04:58:23.876Z,1.32
2017-12-02T04:59:23.921Z,1.29
2017-12-02T05:00:23.960Z,1.33
2017-12-02T05:01:24.021Z,1.26
2017-12-02T05:02:24.038Z,1.33
2017-12-02T05:03:24.082Z,1.26
2017-12-02T05:04:24.119Z,1.24
2017-12-02T05:05:24.163Z,1.25
2017-12-02T05:06:24.220Z,1.22
2017-12-02T05:07:24.240Z,1.18
2017-12-02T05:08:24.285Z,1.16
2017-12-02T05:09:24.323Z,1.16
2017-12-02T05:10:24.363Z,1.18
2017-12-02T05:11:24.418Z,1.21
2017-12-02T05:12:24.442Z,1.21
2017-12-02T05:13:24.481Z,1.19
2017-12-02T05:14:24.523Z,1.14
2017-12-02T05:15:24.563Z,1.14
2017-12-02T05:16:24.619Z,1.14
2017-12-02T05:17:24.662Z,1.12
2017-12-02T05:18:24.685Z,1.06
2017-12-02T05:19:24.726Z,1.14
2017-12-02T05:20:24.767Z,1.15
2017-12-02T05:21:24.807Z,1.26
2017-12-02T05:22:24.871Z,1.16
2017-12-02T05:23:24.885Z,1.21
2017-12-02T05:24:24.930Z,1.21
2017-12-02T05:25:24.965Z,1.16
2017-12-02T05:26:25.009Z,1.18
2017-12-02T05:27:25.068Z,1.16
2017-12-02T05:28:25.147Z,1.15
2017-12-02T05:29:25.127Z,1.18
2017-12-02T05:30:25.167Z,1.12
2017-12-02T05:31:25.211Z,1.18
2017-12-02T05:32:25.264Z,1.19
2017-12-02T05:33:25.304Z,1.15
2017-12-02T05:34:25.333Z,1.28
2017-12-02T05:35:25.369Z,1.26
2017-12-02T05:36:25.409Z,1.32
2017-12-02T05:37:25.449Z,1.32
2017-12-02T05:38:25.505Z,1.21
2017-12-02T05:39:25.547Z,1.34
2017-12-02T05:40:25.571Z,1.42
2017-12-02T05:41:25.609Z,1.36
2017-12-02T05:42:25.651Z,1.33
2017-12-02T05:43:25.710Z,1.29
2017-12-02T05:44:25.731Z,1.32
2017-12-02T05:45:25.776Z,1.29
2017-12-02T05:46:25.812Z,1.19
2017-12-02T05:47:25.855Z,1.32
2017-12-02T05:48:25.906Z,1.29
2017-12-02T05:49:25.935Z,1.26
2017-12-02T05:50:25.990Z,1.24
2017-12-02T05:51:26.016Z,1.32
2017-12-02T05:52:26.057Z,1.26
2017-12-02T05:53:26.093Z,1.33
2017-12-02T05:54:26.135Z,1.36
2017-12-02T05:55:26.202Z,1.36
2017-12-02T05:56:26.214Z,1.34
2017-12-02T05:57:26.256Z,1.42
2017-12-02T05:58:26.296Z,1.32
2017-12-02T05:59:26.336Z,1.28
2017-12-02T06:00:26.400Z,1.42
2017-12-02T06:01:26.414Z,1.42
2017-12-02T06:02:26.457Z,1.39
2017-12-02T06:03:26.496Z,1.33
2017-12-02T06:04:26.535Z,1.28
2017-12-02T06:05:26.595Z,1.29
2017-12-02T06:06:26.616Z,1.33
2017-12-02T06:07:26.656Z,1.37
2017-12-02T06:08:26.702Z,1.28
2017-12-02T06:09:26.736Z,1.33
2017-12-02T06:10:26.796Z,1.37
2017-12-02T06:11:26.844Z,1.36
2017-12-02T06:12:26.855Z,1.39
2017-12-02T06:13:26.896Z,1.39
2017-12-02T06:14:26.938Z,1.37
2017-12-02T06:15:26.976Z,1.37
2017-12-02T06:16:27.034Z,1.42
2017-12-02T06:17:27.057Z,1.34
2017-12-02T06:18:27.098Z,1.39
2017-12-02T06:19:27.137Z,1.29
2017-12-02T06:20:27.228Z,1.29
2017-12-02T06:21:27.234Z,1.29
2017-12-02T06:22:27.255Z,1.26
2017-12-02T06:23:27.298Z,1.36
2017-12-02T06:24:27.338Z,1.42
2017-12-02T06:25:27.379Z,1.29
2017-12-02T06:26:27.435Z,1.42
2017-12-02T06:27:27.459Z,1.33
2017-12-02T06:28:27.507Z,1.36
2017-12-02T06:29:27.539Z,1.42
2017-12-02T06:30:27.576Z,1.42
2017-12-02T06:31:27.634Z,1.39
2017-12-02T06:32:27.674Z,1.36
2017-12-02T06:33:27.698Z,1.33
2017-12-02T06:34:27.735Z,1.26
2017-12-02T06:35:27.778Z,1.37
2017-12-02T06:36:27.826Z,1.29
2017-12-02T06:37:27.876Z,1.37
2017-12-02T06:38:27.899Z,1.22
2017-12-02T06:39:27.946Z,1.25
2017-12-02T06:40:27.982Z,1.24
2017-12-02T06:41:28.019Z,1.25
2017-12-02T06:42:28.079Z,1.22
2017-12-02T06:43:28.101Z,1.25
2017-12-02T06:44:28.141Z,1.19
2017-12-02T06:45:28.180Z,1.26
2017-12-02T06:46:28.220Z,1.19
2017-12-02T06:47:28.282Z,1.29
2017-12-02T06:48:28.301Z,1.10
2017-12-02T06:49:28.346Z,1.08
2017-12-02T06:50:28.382Z,1.14
2017-12-02T06:51:28.423Z,1.24
2017-12-02T06:52:28.477Z,1.21
2017-12-02T06:53:28.502Z,1.19
2017-12-02T06:54:28.542Z,1.24
2017-12-02T06:55:28.582Z,1.26
2017-12-02T06:56:28.624Z,1.22
2017-12-02T06:57:28.685Z,1.22
2017-12-02T06:58:28.718Z,1.22
2017-12-02T06:59:28.743Z,1.28
2017-12-02T07:00:28.784Z,1.16
2017-12-02T07:01:28.826Z,1.19
2017-12-02T07:02:28.864Z,1.16
2017-12-02T07:03:28.922Z,1.18
2017-12-02T07:04:28.946Z,1.22
2017-12-02T07:05:28.986Z,1.18
2017-12-02T07:06:29.023Z,1.16
2017-12-02T07:07:29.067Z,1.19
2017-12-02T07:08:29.126Z,1.15
2017-12-02T07:09:29.149Z,1.19
2017-12-02T07:10:29.187Z,1.22
2017-12-02T07:11:29.227Z,1.18
2017-12-02T07:12:29.269Z,1.19
2017-12-02T07:13:29.322Z,1.16
2017-12-02T07:14:29.348Z,1.22
2017-12-02T07:15:29.404Z,1.22
2017-12-02T07:16:29.434Z,1.33
2017-12-02T07:17:29.468Z,1.29
2017-12-02T07:18:29.508Z,1.28
2017-12-02T07:19:29.566Z,1.32
2017-12-02T07:20:29.590Z,1.33
2017-12-02T07:21:29.629Z,1.28
2017-12-02T07:22:29.697Z,1.39
2017-12-02T07:23:29.710Z,1.37
2017-12-02T07:24:29.771Z,1.36
2017-12-02T07:25:29.791Z,1.37
2017-12-02T07:26:29.832Z,1.39
2017-12-02T07:27:29.874Z,1.34
2017-12-02T07:28:29.920Z,1.39
2017-12-02T07:29:29.967Z,1.42
2017-12-02T07:30:29.993Z,1.43
2017-12-02T07:31:30.057Z,1.36
2017-12-02T07:32:30.074Z,1.39
2017-12-02T07:33:30.116Z,1.50
2017-12-02T07:34:30.153Z,1.46
2017-12-02T07:35:30.213Z,1.57
2017-12-02T07:36:30.252Z,1.51
2017-12-02T07:37:30.275Z,1.51
2017-12-02T07:38:30.318Z,1.51
2017-12-02T07:39:30.358Z,1.64
2017-12-02T07:40:30.414Z,1.68
2017-12-02T07:41:30.439Z,1.60
2017-12-02T07:42:30.479Z,1.62
2017-12-02T07:43:30.517Z,1.69
2017-12-02T07:44:30.561Z,1.71
2017-12-02T07:45:30.634Z,1.78
2017-12-02T07:46:30.640Z,1.79
2017-12-02T07:47:30.682Z,1.93
2017-12-02T07:48:30.724Z,2.13
2017-12-02T07:49:30.766Z,2.34
2017-12-02T07:50:30.820Z,2.51
2017-12-02T07:51:30.844Z,2.63
2017-12-02T07:52:30.887Z,2.52
2017-12-02T07:53:30.942Z,2.45
2017-12-02T07:54:30.968Z,2.63
2017-12-02T07:55:31.008Z,2.51
2017-12-02T07:56:31.050Z,2.46
2017-12-02T07:57:31.089Z,2.45
2017-12-02T07:58:31.146Z,2.37
2017-12-02T07:59:31.171Z,2.31
2017-12-02T08:00:31.213Z,2.40
2017-12-02T08:01:31.255Z,2.31
2017-12-02T08:02:31.328Z,2.34
2017-12-02T08:03:31.339Z,2.34
2017-12-02T08:04:31.378Z,2.33
2017-12-02T08:05:31.420Z,2.26
2017-12-02T08:06:31.459Z,2.22
2017-12-02T08:07:31.517Z,2.23
2017-12-02T08:08:31.567Z,2.26
2017-12-02T08:09:31.586Z,2.38
2017-12-02T08:10:31.626Z,2.70
2017-12-02T08:11:31.668Z,2.77
2017-12-02T08:12:31.709Z,3.28
2017-12-02T08:13:31.766Z,3.88
2017-12-02T08:14:31.794Z,4.47
2017-12-02T08:15:31.834Z,4.61
2017-12-02T08:16:31.874Z,5.02
2017-12-02T08:17:31.916Z,5.22
2017-12-02T08:18:31.976Z,5.27
2017-12-02T08:19:32.003Z,5.37
2017-12-02T08:20:32.047Z,5.19
2017-12-02T08:21:32.088Z,5.07
2017-12-02T08:22:32.128Z,4.75
2017-12-02T08:23:32.186Z,4.36
2017-12-02T08:24:32.220Z,3.98
2017-12-02T08:25:32.256Z,3.79
2017-12-02T08:26:32.303Z,3.50
2017-12-02T08:27:32.342Z,3.42
2017-12-02T08:28:32.417Z,3.18
2017-12-02T08:29:32.429Z,3.13
2017-12-02T08:30:32.472Z,3.03
2017-12-02T08:31:32.513Z,2.89
2017-12-02T08:32:32.556Z,2.79
2017-12-02T08:33:32.617Z,2.69
2017-12-02T08:34:32.649Z,2.64
2017-12-02T08:35:32.692Z,2.64
2017-12-02T08:36:32.724Z,2.64
2017-12-02T08:37:32.770Z,2.73
2017-12-02T08:38:32.825Z,2.64
2017-12-02T08:39:32.853Z,2.71
2017-12-02T08:40:32.897Z,2.55
2017-12-02T08:41:32.935Z,2.61
2017-12-02T08:42:32.980Z,2.46
2017-12-02T08:43:33.036Z,2.58
2017-12-02T08:44:33.064Z,2.58
2017-12-02T08:45:33.104Z,2.67
2017-12-02T08:46:33.147Z,2.67
2017-12-02T08:47:33.186Z,2.70
2017-12-02T08:48:33.244Z,2.66
2017-12-02T08:49:33.270Z,2.73
2017-12-02T08:50:33.312Z,2.71
2017-12-02T08:51:33.357Z,2.55
2017-12-02T08:52:33.394Z,2.56
2017-12-02T08:53:33.452Z,2.59
2017-12-02T08:54:33.493Z,2.61
2017-12-02T08:55:33.521Z,2.64
2017-12-02T08:56:33.563Z,2.69
2017-12-02T08:57:33.602Z,2.73
2017-12-02T08:58:33.663Z,2.77
2017-12-02T08:59:33.748Z,2.69
2017-12-02T09:00:33.745Z,2.74
2017-12-02T09:01:33.770Z,2.69
2017-12-02T09:02:33.811Z,2.58
2017-12-02T09:03:33.854Z,2.63
2017-12-02T09:04:33.917Z,2.59
2017-12-02T09:05:33.935Z,2.56
2017-12-02T09:06:33.979Z,2.56
2017-12-02T09:07:34.018Z,2.66
2017-12-02T09:08:34.060Z,2.69
2017-12-02T09:09:34.121Z,2.66
2017-12-02T09:10:34.165Z,2.64
2017-12-02T09:11:34.185Z,2.64
2017-12-02T09:12:34.227Z,2.64
2017-12-02T09:13:34.268Z,2.71
2017-12-02T09:14:34.325Z,2.59
2017-12-02T09:15:34.370Z,2.61
2017-12-02T09:16:34.394Z,2.59
2017-12-02T09:17:34.436Z,2.49
2017-12-02T09:18:34.479Z,2.48
2017-12-02T09:19:34.531Z,2.58
2017-12-02T09:20:34.560Z,2.61
2017-12-02T09:21:34.616Z,2.66
2017-12-02T09:22:34.642Z,2.70
2017-12-02T09:23:34.682Z,2.67
2017-12-02T09:24:34.724Z,2.66
2017-12-02T09:25:34.765Z,2.69
2017-12-02T09:26:34.821Z,2.77
2017-12-02T09:27:34.849Z,2.76
2017-12-02T09:28:34.890Z,2.82
2017-12-02T09:29:34.934Z,2.77
2017-12-02T09:30:34.972Z,2.84
2017-12-02T09:31:35.031Z,2.71
2017-12-02T09:32:35.060Z,2.69
2017-12-02T09:33:35.095Z,2.55
2017-12-02T09:34:35.140Z,2.46
2017-12-02T09:35:35.181Z,2.63
2017-12-02T09:36:35.331Z,2.58
2017-12-02T09:37:35.281Z,2.64
2017-12-02T09:38:35.306Z,2.69
2017-12-02T09:39:35.353Z,2.73
2017-12-02T09:40:35.386Z,2.66
2017-12-02T09:41:35.462Z,2.73
2017-12-02T09:42:35.469Z,2.76
2017-12-02T09:43:35.516Z,2.67
2017-12-02T09:44:35.553Z,2.67
2017-12-02T09:45:35.593Z,2.67
2017-12-02T09:46:35.650Z,2.67
2017-12-02T09:47:35.675Z,2.59
2017-12-02T09:48:35.720Z,2.66
2017-12-02T09:49:35.758Z,2.70
2017-12-02T09:50:35.800Z,2.64
2017-12-02T09:51:35.857Z,2.69
2017-12-02T09:52:35.919Z,2.73
2017-12-02T09:53:35.922Z,2.76
2017-12-02T09:54:35.965Z,3.18
2017-12-02T09:55:36.006Z,3.12
2017-12-02T09:56:36.050Z,3.07
2017-12-02T09:57:36.121Z,3.12
2017-12-02T09:58:36.130Z,2.89
2017-12-02T09:59:36.172Z,2.87
2017-12-02T10:00:36.215Z,2.85
2017-12-02T10:01:36.256Z,2.85
2017-12-02T10:02:36.312Z,2.95
2017-12-02T10:03:36.348Z,2.91
2017-12-02T10:04:36.396Z,2.94
2017-12-02T10:05:36.422Z,3.02
2017-12-02T10:06:36.467Z,2.95
2017-12-02T10:07:36.513Z,2.92
2017-12-02T10:08:36.547Z,3.00
2017-12-02T10:09:36.605Z,2.92
2017-12-02T10:10:36.627Z,2.97
2017-12-02T10:11:36.682Z,3.05
2017-12-02T10:12:36.716Z,3.02
2017-12-02T10:13:36.760Z,3.31
2017-12-02T10:14:36.815Z,3.31
2017-12-02T10:15:36.840Z,3.34
2017-12-02T10:16:36.881Z,3.50
2017-12-02T10:17:36.924Z,3.39
2017-12-02T10:18:36.964Z,3.42
2017-12-02T10:19:37.039Z,3.39
2017-12-02T10:20:37.076Z,3.34
2017-12-02T10:21:37.090Z,3.43
2017-12-02T10:22:37.134Z,3.34
2017-12-02T10:23:37.175Z,3.18
2017-12-02T10:24:37.230Z,3.10
2017-12-02T10:25:37.276Z,3.18
2017-12-02T10:26:37.343Z,3.09
2017-12-02T10:27:37.342Z,3.20
2017-12-02T10:28:37.395Z,3.21
2017-12-02T10:29:37.430Z,3.21
2017-12-02T10:30:37.507Z,3.18
2017-12-02T10:31:37.512Z,3.40
2017-12-02T10:32:37.553Z,3.47
2017-12-02T10:33:37.594Z,3.50
2017-12-02T10:34:37.633Z,3.60
2017-12-02T10:35:37.696Z,3.64
2017-12-02T10:36:37.736Z,3.90
2017-12-02T10:37:37.762Z,3.89
2017-12-02T10:38:37.804Z,3.96
2017-12-02T10:39:37.847Z,3.75
2017-12-02T10:40:37.891Z,3.60
2017-12-02T10:41:37.971Z,3.61
2017-12-02T10:42:37.973Z,3.60
2017-12-02T10:43:38.018Z,3.65
2017-12-02T10:44:38.073Z,3.76
2017-12-02T10:45:38.099Z,3.85
2017-12-02T10:46:38.174Z,3.86
2017-12-02T10:47:38.188Z,3.92
2017-12-02T10:48:38.226Z,3.86
2017-12-02T10:49:38.285Z,3.71
2017-12-02T10:50:38.313Z,3.64
2017-12-02T10:51:38.387Z,3.60
2017-12-02T10:52:38.398Z,3.78
2017-12-02T10:53:38.439Z,3.89
2017-12-02T10:54:38.479Z,3.90
2017-12-02T10:55:38.526Z,4.01
2017-12-02T10:56:38.584Z,4.18
2017-12-02T10:57:38.637Z,4.37
2017-12-02T10:58:38.650Z,4.40
2017-12-02T10:59:38.691Z,4.15
2017-12-02T11:00:38.735Z,3.97
2017-12-02T11:01:38.777Z,3.85
2017-12-02T11:02:38.833Z,3.78
2017-12-02T11:03:38.860Z,3.75
2017-12-02T11:04:38.906Z,3.65
2017-12-02T11:05:38.946Z,3.54
2017-12-02T11:06:38.989Z,3.54
2017-12-02T11:07:39.045Z,3.47
2017-12-02T11:08:39.076Z,3.52
2017-12-02T11:09:39.115Z,3.43
2017-12-02T11:10:39.156Z,3.34
2017-12-02T11:11:39.198Z,3.39
2017-12-02T11:12:39.257Z,3.18
2017-12-02T11:13:39.299Z,3.00
2017-12-02T11:14:39.324Z,2.94
2017-12-02T11:15:39.422Z,2.76
2017-12-02T11:16:39.416Z,2.76
2017-12-02T11:17:39.992Z,2.84
2017-12-02T11:18:39.515Z,2.88
2017-12-02T11:19:39.546Z,2.85
2017-12-02T11:20:39.577Z,2.92
2017-12-02T11:21:39.619Z,2.94
2017-12-02T11:22:39.662Z,2.82
2017-12-02T11:23:39.721Z,2.73
2017-12-02T11:24:39.752Z,2.74
2017-12-02T11:25:39.786Z,2.69
2017-12-02T11:26:39.827Z,2.70
2017-12-02T11:27:39.872Z,2.66
2017-12-02T11:28:39.927Z,2.73
2017-12-02T11:29:39.954Z,2.74
2017-12-02T11:30:39.994Z,2.84
2017-12-02T11:31:40.044Z,2.71
2017-12-02T11:32:40.077Z,2.74
2017-12-02T11:33:40.135Z,2.66
2017-12-02T11:34:40.160Z,2.67
2017-12-02T11:35:40.220Z,2.71
2017-12-02T11:36:40.244Z,2.59
2017-12-02T11:37:40.284Z,2.58
2017-12-02T11:38:40.326Z,2.64
2017-12-02T11:39:40.368Z,2.63
2017-12-02T11:40:40.427Z,2.67
2017-12-02T11:41:40.450Z,2.73
2017-12-02T11:42:40.492Z,2.74
2017-12-02T11:43:40.534Z,2.81
2017-12-02T11:44:40.578Z,2.81
2017-12-02T11:45:40.630Z,2.73
2017-12-02T11:46:40.656Z,2.79
2017-12-02T11:47:40.698Z,2.81
2017-12-02T11:48:40.739Z,2.82
2017-12-02T11:49:40.780Z,2.74
2017-12-02T11:50:40.838Z,2.63
2017-12-02T11:51:40.863Z,2.66
2017-12-02T11:52:40.931Z,2.61
2017-12-02T11:53:40.947Z,2.58
2017-12-02T11:54:40.988Z,2.61
2017-12-02T11:55:41.046Z,2.73
2017-12-02T11:56:41.073Z,2.81
2017-12-02T11:57:41.111Z,2.82
2017-12-02T11:58:41.173Z,2.79
2017-12-02T11:59:41.197Z,2.81
2017-12-02T12:00:41.237Z,2.81
2017-12-02T12:01:41.360Z,2.79
2017-12-02T12:02:41.319Z,2.81
2017-12-02T12:03:41.382Z,2.79
2017-12-02T12:04:41.398Z,2.81
2017-12-02T12:05:41.444Z,2.76
2017-12-02T12:06:41.484Z,2.87
2017-12-02T12:07:41.542Z,2.85
2017-12-02T12:08:41.566Z,2.70
2017-12-02T12:09:41.617Z,2.67
2017-12-02T12:10:41.649Z,2.74
2017-12-02T12:11:41.692Z,2.71
2017-12-02T12:12:41.753Z,2.71
2017-12-02T12:13:41.771Z,2.71
2017-12-02T12:14:41.813Z,2.77
2017-12-02T12:15:41.855Z,2.73
2017-12-02T12:16:41.900Z,2.71
2017-12-02T12:17:41.958Z,2.70
2017-12-02T12:18:41.985Z,2.74
2017-12-02T12:19:42.020Z,2.69
2017-12-02T12:20:42.061Z,2.74
2017-12-02T12:21:42.101Z,2.67
2017-12-02T12:22:42.161Z,2.71
2017-12-02T12:23:42.184Z,2.64
2017-12-02T12:24:42.226Z,2.66
2017-12-02T12:25:42.277Z,2.70
2017-12-02T12:26:42.309Z,2.74
2017-12-02T12:27:42.375Z,2.87
2017-12-02T12:28:42.392Z,2.94
2017-12-02T12:29:42.447Z,2.98
2017-12-02T12:30:42.473Z,2.98
2017-12-02T12:31:42.516Z,3.06
2017-12-02T12:32:42.557Z,2.92
2017-12-02T12:33:42.627Z,2.91
2017-12-02T12:34:42.654Z,2.91
2017-12-02T12:35:42.690Z,2.91
2017-12-02T12:36:42.762Z,2.81
2017-12-02T12:37:42.762Z,2.77
2017-12-02T12:38:42.806Z,2.71
2017-12-02T12:39:42.863Z,2.70
2017-12-02T12:40:42.884Z,2.64
2017-12-02T12:41:42.928Z,2.56
2017-12-02T12:42:42.969Z,2.74
2017-12-02T12:43:43.010Z,2.71
2017-12-02T12:44:43.079Z,2.74
2017-12-02T12:45:43.092Z,2.77
2017-12-02T12:46:43.143Z,2.79
2017-12-02T12:47:43.175Z,2.74
2017-12-02T12:48:43.226Z,2.70
2017-12-02T12:49:43.276Z,2.71
2017-12-02T12:50:43.301Z,2.81
2017-12-02T12:51:43.357Z,2.79
2017-12-02T12:52:43.381Z,2.84
2017-12-02T12:53:43.422Z,2.74
2017-12-02T12:54:43.464Z,2.69
2017-12-02T12:55:43.523Z,2.73
2017-12-02T12:56:43.547Z,2.71
2017-12-02T12:57:43.591Z,2.66
2017-12-02T12:58:43.630Z,2.66
2017-12-02T12:59:43.679Z,2.69
2017-12-02T13:00:43.733Z,2.67
2017-12-02T13:01:43.769Z,2.74
2017-12-02T13:02:43.797Z,2.70
2017-12-02T13:03:43.835Z,2.74
2017-12-02T13:04:43.877Z,2.70
2017-12-02T13:05:43.921Z,2.79
2017-12-02T13:06:43.983Z,2.70
2017-12-02T13:07:43.999Z,2.67
2017-12-02T13:08:44.044Z,2.77
2017-12-02T13:09:44.082Z,2.69
2017-12-02T13:10:44.125Z,2.71
2017-12-02T13:11:44.181Z,2.69
2017-12-02T13:12:44.207Z,2.55
2017-12-02T13:13:44.247Z,2.64
2017-12-02T13:14:44.288Z,2.70
2017-12-02T13:15:44.332Z,2.69
2017-12-02T13:16:44.388Z,2.63
2017-12-02T13:17:44.444Z,2.70
2017-12-02T13:18:44.453Z,2.73